sensor_id;sensor_type;location;lat;lon;timestamp;temperature;humidity
837;DHT22;400;53.550;9.932;2023-09-12T00:00:25;21.50;1.00
837;DHT22;400;53.550;9.932;2023-09-12T00:02:52;21.40;1.00
837;DHT22;400;53.550;9.932;2023-09-12T00:05:20;21.40;1.00
837;DHT22;400;53.550;9.932;2023-09-12T00:07:47;21.40;1.00
837;DHT22;400;53.550;9.932;2023-09-12T00:10:14;21.30;1.00
837;DHT22;400;53.550;9.932;2023-09-12T00:12:41;21.30;1.00
837;DHT22;400;53.550;9.932;2023-09-12T00:15:08;21.30;1.00
837;DHT22;400;53.550;9.932;2023-09-12T00:17:35;21.30;1.00
837;DHT22;400;53.550;9.932;2023-09-12T00:20:06;21.20;1.00
837;DHT22;400;53.550;9.932;2023-09-12T00:22:35;21.20;1.00
837;DHT22;400;53.550;9.932;2023-09-12T00:25:02;21.30;1.00
837;DHT22;400;53.550;9.932;2023-09-12T00:27:29;21.20;1.00
837;DHT22;400;53.550;9.932;2023-09-12T00:29:56;21.20;1.00
837;DHT22;400;53.550;9.932;2023-09-12T00:32:23;21.10;1.00
837;DHT22;400;53.550;9.932;2023-09-12T00:34:50;21.00;1.00
837;DHT22;400;53.550;9.932;2023-09-12T00:37:17;20.90;1.00
837;DHT22;400;53.550;9.932;2023-09-12T00:39:45;20.90;22.00
837;DHT22;400;53.550;9.932;2023-09-12T00:42:13;20.80;24.80
837;DHT22;400;53.550;9.932;2023-09-12T00:44:40;20.80;26.30
837;DHT22;400;53.550;9.932;2023-09-12T00:47:07;20.90;28.50
837;DHT22;400;53.550;9.932;2023-09-12T00:49:35;20.90;34.60
837;DHT22;400;53.550;9.932;2023-09-12T00:52:03;20.90;24.10
837;DHT22;400;53.550;9.932;2023-09-12T00:54:30;20.90;15.90
837;DHT22;400;53.550;9.932;2023-09-12T00:56:58;20.90;16.10
837;DHT22;400;53.550;9.932;2023-09-12T00:59:25;20.90;22.50
837;DHT22;400;53.550;9.932;2023-09-12T01:01:52;20.90;11.50
837;DHT22;400;53.550;9.932;2023-09-12T01:04:19;20.90;8.10
837;DHT22;400;53.550;9.932;2023-09-12T01:06:46;20.90;8.70
837;DHT22;400;53.550;9.932;2023-09-12T01:09:14;21.00;1.00
837;DHT22;400;53.550;9.932;2023-09-12T01:11:41;21.00;1.00
837;DHT22;400;53.550;9.932;2023-09-12T01:14:10;21.10;1.00
837;DHT22;400;53.550;9.932;2023-09-12T01:16:37;21.10;1.00
837;DHT22;400;53.550;9.932;2023-09-12T01:19:04;21.20;1.00
837;DHT22;400;53.550;9.932;2023-09-12T01:21:44;21.20;1.00
837;DHT22;400;53.550;9.932;2023-09-12T01:24:45;21.30;1.00
837;DHT22;400;53.550;9.932;2023-09-12T01:27:23;21.30;1.00
837;DHT22;400;53.550;9.932;2023-09-12T01:29:58;21.40;1.00
837;DHT22;400;53.550;9.932;2023-09-12T01:32:29;21.40;1.00
837;DHT22;400;53.550;9.932;2023-09-12T01:34:56;21.40;1.00
837;DHT22;400;53.550;9.932;2023-09-12T01:37:23;21.40;1.00
837;DHT22;400;53.550;9.932;2023-09-12T01:39:50;21.40;1.00
837;DHT22;400;53.550;9.932;2023-09-12T01:45:40;21.40;1.00
837;DHT22;400;53.550;9.932;2023-09-12T01:48:08;21.50;1.00
837;DHT22;400;53.550;9.932;2023-09-12T01:50:38;21.50;1.00
837;DHT22;400;53.550;9.932;2023-09-12T01:53:05;21.50;1.00
837;DHT22;400;53.550;9.932;2023-09-12T01:55:32;21.50;1.00
837;DHT22;400;53.550;9.932;2023-09-12T01:57:59;21.40;1.00
837;DHT22;400;53.550;9.932;2023-09-12T02:00:26;21.20;1.00
837;DHT22;400;53.550;9.932;2023-09-12T02:02:55;21.10;1.00
837;DHT22;400;53.550;9.932;2023-09-12T02:05:22;21.00;1.00
837;DHT22;400;53.550;9.932;2023-09-12T02:07:49;20.90;1.00
837;DHT22;400;53.550;9.932;2023-09-12T02:10:17;20.90;1.00
837;DHT22;400;53.550;9.932;2023-09-12T02:12:44;20.80;12.30
837;DHT22;400;53.550;9.932;2023-09-12T02:15:11;20.80;27.60
837;DHT22;400;53.550;9.932;2023-09-12T02:17:38;20.70;40.30
837;DHT22;400;53.550;9.932;2023-09-12T02:20:08;20.70;58.90
837;DHT22;400;53.550;9.932;2023-09-12T02:22:36;20.80;61.90
837;DHT22;400;53.550;9.932;2023-09-12T02:25:03;20.80;36.10
837;DHT22;400;53.550;9.932;2023-09-12T02:27:31;20.70;56.60
837;DHT22;400;53.550;9.932;2023-09-12T02:29:58;20.70;71.30
837;DHT22;400;53.550;9.932;2023-09-12T02:32:24;20.70;92.30
837;DHT22;400;53.550;9.932;2023-09-12T02:34:51;20.70;91.90
837;DHT22;400;53.550;9.932;2023-09-12T02:37:20;20.70;91.70
837;DHT22;400;53.550;9.932;2023-09-12T02:39:48;20.70;85.60
837;DHT22;400;53.550;9.932;2023-09-12T02:42:15;20.80;47.80
837;DHT22;400;53.550;9.932;2023-09-12T02:44:42;20.80;50.00
837;DHT22;400;53.550;9.932;2023-09-12T02:47:09;20.80;33.50
837;DHT22;400;53.550;9.932;2023-09-12T02:49:35;20.80;40.30
837;DHT22;400;53.550;9.932;2023-09-12T02:52:03;20.70;54.30
837;DHT22;400;53.550;9.932;2023-09-12T02:54:31;20.80;58.30
837;DHT22;400;53.550;9.932;2023-09-12T02:56:58;20.90;71.50
837;DHT22;400;53.550;9.932;2023-09-12T02:59:29;21.00;33.90
837;DHT22;400;53.550;9.932;2023-09-12T03:01:56;21.00;62.60
837;DHT22;400;53.550;9.932;2023-09-12T03:04:24;20.90;58.20
837;DHT22;400;53.550;9.932;2023-09-12T03:06:55;20.90;97.80
837;DHT22;400;53.550;9.932;2023-09-12T03:09:24;20.80;99.90
837;DHT22;400;53.550;9.932;2023-09-12T03:11:52;20.90;99.90
837;DHT22;400;53.550;9.932;2023-09-12T03:14:19;20.90;99.90
837;DHT22;400;53.550;9.932;2023-09-12T03:16:46;20.80;99.90
837;DHT22;400;53.550;9.932;2023-09-12T03:19:13;20.70;99.90
837;DHT22;400;53.550;9.932;2023-09-12T03:21:40;20.70;99.90
837;DHT22;400;53.550;9.932;2023-09-12T03:24:07;20.80;99.90
837;DHT22;400;53.550;9.932;2023-09-12T03:26:35;20.80;99.90
837;DHT22;400;53.550;9.932;2023-09-12T03:29:04;20.80;99.90
837;DHT22;400;53.550;9.932;2023-09-12T03:31:32;20.80;99.90
837;DHT22;400;53.550;9.932;2023-09-12T03:34:02;20.80;99.90
837;DHT22;400;53.550;9.932;2023-09-12T03:36:29;20.80;99.90
837;DHT22;400;53.550;9.932;2023-09-12T03:38:58;20.90;99.90
837;DHT22;400;53.550;9.932;2023-09-12T03:41:27;21.00;99.90
837;DHT22;400;53.550;9.932;2023-09-12T03:43:54;21.00;99.90
837;DHT22;400;53.550;9.932;2023-09-12T03:46:22;21.00;99.90
837;DHT22;400;53.550;9.932;2023-09-12T03:48:49;21.00;99.90
837;DHT22;400;53.550;9.932;2023-09-12T03:51:19;21.10;99.90
837;DHT22;400;53.550;9.932;2023-09-12T03:53:49;21.10;99.90
837;DHT22;400;53.550;9.932;2023-09-12T03:56:17;21.10;99.90
837;DHT22;400;53.550;9.932;2023-09-12T03:58:45;21.20;99.90
837;DHT22;400;53.550;9.932;2023-09-12T04:01:12;21.20;98.30
837;DHT22;400;53.550;9.932;2023-09-12T04:03:40;21.20;81.10
837;DHT22;400;53.550;9.932;2023-09-12T04:06:07;21.00;99.90
837;DHT22;400;53.550;9.932;2023-09-12T04:08:38;21.00;99.90
837;DHT22;400;53.550;9.932;2023-09-12T04:11:05;21.10;99.90
837;DHT22;400;53.550;9.932;2023-09-12T04:13:31;21.10;99.90
837;DHT22;400;53.550;9.932;2023-09-12T04:15:58;21.10;98.00
837;DHT22;400;53.550;9.932;2023-09-12T04:18:25;21.10;99.90
837;DHT22;400;53.550;9.932;2023-09-12T04:20:54;21.10;99.90
837;DHT22;400;53.550;9.932;2023-09-12T04:23:24;21.10;99.90
837;DHT22;400;53.550;9.932;2023-09-12T04:25:52;21.10;99.00
837;DHT22;400;53.550;9.932;2023-09-12T04:28:18;21.00;99.90
837;DHT22;400;53.550;9.932;2023-09-12T04:30:48;20.90;99.90
837;DHT22;400;53.550;9.932;2023-09-12T04:33:15;20.90;99.90
837;DHT22;400;53.550;9.932;2023-09-12T04:35:42;20.80;99.90
837;DHT22;400;53.550;9.932;2023-09-12T04:38:10;20.70;99.90
837;DHT22;400;53.550;9.932;2023-09-12T04:40:38;20.60;99.90
837;DHT22;400;53.550;9.932;2023-09-12T04:43:08;20.60;99.90
837;DHT22;400;53.550;9.932;2023-09-12T04:45:38;20.50;99.90
837;DHT22;400;53.550;9.932;2023-09-12T04:48:07;20.50;99.90
837;DHT22;400;53.550;9.932;2023-09-12T04:50:37;20.50;99.90
837;DHT22;400;53.550;9.932;2023-09-12T04:53:06;20.40;99.90
837;DHT22;400;53.550;9.932;2023-09-12T04:55:36;20.50;99.90
837;DHT22;400;53.550;9.932;2023-09-12T04:58:04;20.50;99.90
837;DHT22;400;53.550;9.932;2023-09-12T05:00:38;20.50;99.90
837;DHT22;400;53.550;9.932;2023-09-12T05:03:10;20.40;99.90
837;DHT22;400;53.550;9.932;2023-09-12T05:05:36;20.40;99.90
837;DHT22;400;53.550;9.932;2023-09-12T05:08:09;20.40;99.90
837;DHT22;400;53.550;9.932;2023-09-12T05:10:38;20.40;99.90
837;DHT22;400;53.550;9.932;2023-09-12T05:13:05;20.40;99.90
837;DHT22;400;53.550;9.932;2023-09-12T05:15:32;20.30;1.00
837;DHT22;400;53.550;9.932;2023-09-12T05:18:09;20.30;1.00
837;DHT22;400;53.550;9.932;2023-09-12T05:20:39;20.30;1.00
837;DHT22;400;53.550;9.932;2023-09-12T05:23:10;20.40;1.00
837;DHT22;400;53.550;9.932;2023-09-12T05:25:39;20.50;1.00
837;DHT22;400;53.550;9.932;2023-09-12T05:28:09;20.60;1.00
837;DHT22;400;53.550;9.932;2023-09-12T05:30:50;20.70;99.90
837;DHT22;400;53.550;9.932;2023-09-12T05:33:18;20.80;99.90
837;DHT22;400;53.550;9.932;2023-09-12T05:35:47;20.90;99.90
837;DHT22;400;53.550;9.932;2023-09-12T05:38:15;20.90;99.90
837;DHT22;400;53.550;9.932;2023-09-12T05:40:48;20.90;99.90
837;DHT22;400;53.550;9.932;2023-09-12T05:43:18;21.00;99.90
837;DHT22;400;53.550;9.932;2023-09-12T05:45:49;21.00;99.90
837;DHT22;400;53.550;9.932;2023-09-12T05:48:16;21.00;99.90
837;DHT22;400;53.550;9.932;2023-09-12T05:50:43;21.00;99.90
837;DHT22;400;53.550;9.932;2023-09-12T05:53:10;20.90;99.90
837;DHT22;400;53.550;9.932;2023-09-12T05:55:37;20.90;99.90
837;DHT22;400;53.550;9.932;2023-09-12T05:58:05;21.00;99.90
837;DHT22;400;53.550;9.932;2023-09-12T06:00:32;20.90;99.90
837;DHT22;400;53.550;9.932;2023-09-12T06:03:00;20.80;99.90
837;DHT22;400;53.550;9.932;2023-09-12T06:05:27;20.80;99.90
837;DHT22;400;53.550;9.932;2023-09-12T06:08:00;20.70;99.90
837;DHT22;400;53.550;9.932;2023-09-12T06:10:32;20.70;99.90
837;DHT22;400;53.550;9.932;2023-09-12T06:13:09;20.80;99.90
837;DHT22;400;53.550;9.932;2023-09-12T06:15:36;20.70;99.90
837;DHT22;400;53.550;9.932;2023-09-12T06:18:03;20.70;99.90
837;DHT22;400;53.550;9.932;2023-09-12T06:20:32;20.70;99.90
837;DHT22;400;53.550;9.932;2023-09-12T06:23:05;20.70;99.90
837;DHT22;400;53.550;9.932;2023-09-12T06:25:34;20.70;99.90
837;DHT22;400;53.550;9.932;2023-09-12T06:28:03;20.70;99.90
837;DHT22;400;53.550;9.932;2023-09-12T06:30:35;20.60;99.90
837;DHT22;400;53.550;9.932;2023-09-12T06:33:12;20.70;99.90
837;DHT22;400;53.550;9.932;2023-09-12T06:35:50;20.80;99.90
837;DHT22;400;53.550;9.932;2023-09-12T06:38:22;20.80;99.90
837;DHT22;400;53.550;9.932;2023-09-12T06:40:55;20.80;99.90
837;DHT22;400;53.550;9.932;2023-09-12T06:43:32;20.80;99.90
837;DHT22;400;53.550;9.932;2023-09-12T06:46:11;20.80;99.90
837;DHT22;400;53.550;9.932;2023-09-12T06:48:45;20.80;99.90
837;DHT22;400;53.550;9.932;2023-09-12T06:51:16;20.80;99.90
837;DHT22;400;53.550;9.932;2023-09-12T06:53:48;20.80;99.90
837;DHT22;400;53.550;9.932;2023-09-12T06:56:16;20.90;99.90
837;DHT22;400;53.550;9.932;2023-09-12T06:58:44;20.90;99.90
837;DHT22;400;53.550;9.932;2023-09-12T07:01:23;21.00;99.90
837;DHT22;400;53.550;9.932;2023-09-12T07:04:07;21.10;99.90
837;DHT22;400;53.550;9.932;2023-09-12T07:06:39;21.10;99.90
837;DHT22;400;53.550;9.932;2023-09-12T07:09:11;21.20;99.90
837;DHT22;400;53.550;9.932;2023-09-12T07:11:43;21.30;99.90
837;DHT22;400;53.550;9.932;2023-09-12T07:14:10;21.40;99.90
837;DHT22;400;53.550;9.932;2023-09-12T07:16:38;21.40;99.90
837;DHT22;400;53.550;9.932;2023-09-12T07:19:05;21.50;99.90
837;DHT22;400;53.550;9.932;2023-09-12T07:21:32;21.50;99.90
837;DHT22;400;53.550;9.932;2023-09-12T07:24:00;21.40;99.90
837;DHT22;400;53.550;9.932;2023-09-12T07:26:29;21.40;99.90
837;DHT22;400;53.550;9.932;2023-09-12T07:28:55;21.50;99.90
837;DHT22;400;53.550;9.932;2023-09-12T07:31:22;21.50;99.90
837;DHT22;400;53.550;9.932;2023-09-12T07:33:51;21.50;95.30
837;DHT22;400;53.550;9.932;2023-09-12T07:36:18;21.60;91.80
837;DHT22;400;53.550;9.932;2023-09-12T07:38:44;21.60;47.10
837;DHT22;400;53.550;9.932;2023-09-12T07:41:12;21.60;60.20
837;DHT22;400;53.550;9.932;2023-09-12T07:43:48;21.60;80.70
837;DHT22;400;53.550;9.932;2023-09-12T07:46:20;21.60;49.50
837;DHT22;400;53.550;9.932;2023-09-12T07:48:51;21.60;51.10
837;DHT22;400;53.550;9.932;2023-09-12T07:51:19;21.60;30.80
837;DHT22;400;53.550;9.932;2023-09-12T07:53:48;21.60;29.80
837;DHT22;400;53.550;9.932;2023-09-12T07:56:18;21.60;30.70
837;DHT22;400;53.550;9.932;2023-09-12T07:58:45;21.80;18.50
837;DHT22;400;53.550;9.932;2023-09-12T08:01:11;21.90;14.10
837;DHT22;400;53.550;9.932;2023-09-12T08:03:42;22.00;1.00
837;DHT22;400;53.550;9.932;2023-09-12T08:06:19;22.10;1.00
837;DHT22;400;53.550;9.932;2023-09-12T08:08:48;22.10;1.00
837;DHT22;400;53.550;9.932;2023-09-12T08:11:15;22.20;1.00
837;DHT22;400;53.550;9.932;2023-09-12T08:13:42;22.20;1.00
837;DHT22;400;53.550;9.932;2023-09-12T08:16:09;22.20;1.00
837;DHT22;400;53.550;9.932;2023-09-12T08:18:36;22.30;1.00
837;DHT22;400;53.550;9.932;2023-09-12T08:21:03;22.30;1.00
837;DHT22;400;53.550;9.932;2023-09-12T08:23:31;22.30;1.00
837;DHT22;400;53.550;9.932;2023-09-12T08:25:58;22.40;1.00
837;DHT22;400;53.550;9.932;2023-09-12T08:28:25;22.30;1.00
837;DHT22;400;53.550;9.932;2023-09-12T08:30:56;22.20;1.00
837;DHT22;400;53.550;9.932;2023-09-12T08:33:28;22.40;1.00
837;DHT22;400;53.550;9.932;2023-09-12T08:35:57;22.40;1.00
837;DHT22;400;53.550;9.932;2023-09-12T08:38:23;22.60;1.00
837;DHT22;400;53.550;9.932;2023-09-12T08:40:52;22.60;1.00
837;DHT22;400;53.550;9.932;2023-09-12T08:43:20;22.70;1.00
837;DHT22;400;53.550;9.932;2023-09-12T08:45:47;22.80;1.00
837;DHT22;400;53.550;9.932;2023-09-12T08:48:16;22.80;1.00
837;DHT22;400;53.550;9.932;2023-09-12T08:50:46;22.80;1.00
837;DHT22;400;53.550;9.932;2023-09-12T08:53:14;22.90;1.00
837;DHT22;400;53.550;9.932;2023-09-12T08:55:43;22.90;1.00
837;DHT22;400;53.550;9.932;2023-09-12T08:58:22;23.00;1.00
837;DHT22;400;53.550;9.932;2023-09-12T09:00:53;23.10;1.00
837;DHT22;400;53.550;9.932;2023-09-12T09:03:22;23.10;1.00
837;DHT22;400;53.550;9.932;2023-09-12T09:05:52;23.10;1.00
837;DHT22;400;53.550;9.932;2023-09-12T09:08:31;22.90;1.00
837;DHT22;400;53.550;9.932;2023-09-12T09:11:15;22.90;1.00
837;DHT22;400;53.550;9.932;2023-09-12T09:13:49;22.80;1.00
837;DHT22;400;53.550;9.932;2023-09-12T09:16:18;22.70;1.00
837;DHT22;400;53.550;9.932;2023-09-12T09:18:51;22.70;1.00
837;DHT22;400;53.550;9.932;2023-09-12T09:21:27;22.70;1.00
837;DHT22;400;53.550;9.932;2023-09-12T09:24:02;22.80;1.00
837;DHT22;400;53.550;9.932;2023-09-12T09:26:47;22.90;1.00
837;DHT22;400;53.550;9.932;2023-09-12T09:29:21;23.20;1.00
837;DHT22;400;53.550;9.932;2023-09-12T09:31:58;23.20;1.00
837;DHT22;400;53.550;9.932;2023-09-12T09:34:27;23.10;1.00
837;DHT22;400;53.550;9.932;2023-09-12T09:36:56;23.20;1.00
837;DHT22;400;53.550;9.932;2023-09-12T09:39:24;23.20;1.00
837;DHT22;400;53.550;9.932;2023-09-12T09:41:53;23.30;1.00
837;DHT22;400;53.550;9.932;2023-09-12T09:44:24;23.50;1.00
837;DHT22;400;53.550;9.932;2023-09-12T09:46:54;23.60;1.00
837;DHT22;400;53.550;9.932;2023-09-12T09:49:22;23.50;1.00
837;DHT22;400;53.550;9.932;2023-09-12T09:51:51;23.40;1.00
837;DHT22;400;53.550;9.932;2023-09-12T09:54:30;23.40;1.00
837;DHT22;400;53.550;9.932;2023-09-12T09:56:59;23.60;1.00
837;DHT22;400;53.550;9.932;2023-09-12T09:59:28;23.70;1.00
837;DHT22;400;53.550;9.932;2023-09-12T10:01:58;23.60;1.00
837;DHT22;400;53.550;9.932;2023-09-12T10:04:27;23.60;1.00
837;DHT22;400;53.550;9.932;2023-09-12T10:06:58;23.60;1.00
837;DHT22;400;53.550;9.932;2023-09-12T10:09:29;23.60;1.00
837;DHT22;400;53.550;9.932;2023-09-12T10:11:59;23.60;1.00
837;DHT22;400;53.550;9.932;2023-09-12T10:14:30;23.60;1.00
837;DHT22;400;53.550;9.932;2023-09-12T10:17:00;23.50;1.00
837;DHT22;400;53.550;9.932;2023-09-12T10:19:35;23.50;1.00
837;DHT22;400;53.550;9.932;2023-09-12T10:22:06;23.40;1.00
837;DHT22;400;53.550;9.932;2023-09-12T10:24:41;23.30;1.00
837;DHT22;400;53.550;9.932;2023-09-12T10:27:20;23.00;1.00
837;DHT22;400;53.550;9.932;2023-09-12T10:29:50;23.10;1.00
837;DHT22;400;53.550;9.932;2023-09-12T10:32:25;23.20;1.00
837;DHT22;400;53.550;9.932;2023-09-12T10:34:56;23.20;1.00
837;DHT22;400;53.550;9.932;2023-09-12T10:37:25;23.40;1.00
837;DHT22;400;53.550;9.932;2023-09-12T10:39:53;23.40;1.00
837;DHT22;400;53.550;9.932;2023-09-12T10:42:27;23.50;1.00
837;DHT22;400;53.550;9.932;2023-09-12T10:45:02;23.40;1.00
837;DHT22;400;53.550;9.932;2023-09-12T10:47:29;23.50;1.00
837;DHT22;400;53.550;9.932;2023-09-12T10:49:57;23.60;1.00
837;DHT22;400;53.550;9.932;2023-09-12T10:52:25;23.40;1.00
837;DHT22;400;53.550;9.932;2023-09-12T10:54:52;23.30;1.00
837;DHT22;400;53.550;9.932;2023-09-12T10:57:20;23.10;1.00
837;DHT22;400;53.550;9.932;2023-09-12T11:00:11;23.20;1.00
837;DHT22;400;53.550;9.932;2023-09-12T11:02:38;23.00;1.00
837;DHT22;400;53.550;9.932;2023-09-12T11:05:35;23.10;1.00
837;DHT22;400;53.550;9.932;2023-09-12T11:08:07;23.30;1.00
837;DHT22;400;53.550;9.932;2023-09-12T11:10:40;23.40;1.00
837;DHT22;400;53.550;9.932;2023-09-12T11:13:18;23.30;1.00
837;DHT22;400;53.550;9.932;2023-09-12T11:16:13;23.40;1.00
837;DHT22;400;53.550;9.932;2023-09-12T11:19:20;23.30;1.00
837;DHT22;400;53.550;9.932;2023-09-12T11:21:51;23.20;1.00
837;DHT22;400;53.550;9.932;2023-09-12T11:24:26;23.30;1.00
837;DHT22;400;53.550;9.932;2023-09-12T11:26:59;23.30;1.00
837;DHT22;400;53.550;9.932;2023-09-12T11:29:30;23.30;1.00
837;DHT22;400;53.550;9.932;2023-09-12T11:32:04;23.20;1.00
837;DHT22;400;53.550;9.932;2023-09-12T11:34:37;23.20;1.00
837;DHT22;400;53.550;9.932;2023-09-12T11:37:12;23.30;1.00
837;DHT22;400;53.550;9.932;2023-09-12T11:39:52;23.20;1.00
837;DHT22;400;53.550;9.932;2023-09-12T11:42:25;23.00;1.00
837;DHT22;400;53.550;9.932;2023-09-12T11:44:57;23.00;1.00
837;DHT22;400;53.550;9.932;2023-09-12T11:47:27;23.00;1.00
837;DHT22;400;53.550;9.932;2023-09-12T11:50:00;22.70;1.00
837;DHT22;400;53.550;9.932;2023-09-12T11:52:29;22.60;1.00
837;DHT22;400;53.550;9.932;2023-09-12T11:54:56;22.70;1.00
837;DHT22;400;53.550;9.932;2023-09-12T11:57:27;22.70;1.00
837;DHT22;400;53.550;9.932;2023-09-12T12:00:03;22.80;1.00
837;DHT22;400;53.550;9.932;2023-09-12T12:02:46;22.90;1.00
837;DHT22;400;53.550;9.932;2023-09-12T12:05:13;22.90;1.00
837;DHT22;400;53.550;9.932;2023-09-12T12:07:40;22.90;1.00
837;DHT22;400;53.550;9.932;2023-09-12T12:10:08;22.90;1.00
837;DHT22;400;53.550;9.932;2023-09-12T12:12:35;22.80;1.00
837;DHT22;400;53.550;9.932;2023-09-12T12:15:02;22.70;1.00
837;DHT22;400;53.550;9.932;2023-09-12T12:17:29;22.70;1.00
837;DHT22;400;53.550;9.932;2023-09-12T12:19:59;22.70;1.00
837;DHT22;400;53.550;9.932;2023-09-12T12:22:26;22.80;1.00
837;DHT22;400;53.550;9.932;2023-09-12T12:24:53;23.00;1.00
837;DHT22;400;53.550;9.932;2023-09-12T12:27:22;23.10;1.00
837;DHT22;400;53.550;9.932;2023-09-12T12:29:54;23.20;1.00
837;DHT22;400;53.550;9.932;2023-09-12T12:32:23;23.30;1.00
837;DHT22;400;53.550;9.932;2023-09-12T12:34:51;23.40;1.00
837;DHT22;400;53.550;9.932;2023-09-12T12:37:19;23.40;1.00
837;DHT22;400;53.550;9.932;2023-09-12T12:39:46;23.50;1.00
837;DHT22;400;53.550;9.932;2023-09-12T12:42:13;23.50;1.00
837;DHT22;400;53.550;9.932;2023-09-12T12:44:40;23.20;1.00
837;DHT22;400;53.550;9.932;2023-09-12T12:47:08;23.00;1.00
837;DHT22;400;53.550;9.932;2023-09-12T12:49:38;23.10;1.00
837;DHT22;400;53.550;9.932;2023-09-12T12:52:08;23.10;1.00
837;DHT22;400;53.550;9.932;2023-09-12T12:54:37;22.90;1.00
837;DHT22;400;53.550;9.932;2023-09-12T12:57:04;22.80;1.00
837;DHT22;400;53.550;9.932;2023-09-12T12:59:31;22.90;1.00
837;DHT22;400;53.550;9.932;2023-09-12T13:02:03;23.00;1.00
837;DHT22;400;53.550;9.932;2023-09-12T13:04:39;23.00;1.00
837;DHT22;400;53.550;9.932;2023-09-12T13:07:10;23.10;1.00
837;DHT22;400;53.550;9.932;2023-09-12T13:09:39;23.30;1.00
837;DHT22;400;53.550;9.932;2023-09-12T13:12:10;23.30;1.00
837;DHT22;400;53.550;9.932;2023-09-12T13:14:38;23.40;1.00
837;DHT22;400;53.550;9.932;2023-09-12T13:17:05;23.50;1.00
837;DHT22;400;53.550;9.932;2023-09-12T13:19:33;23.60;1.00
837;DHT22;400;53.550;9.932;2023-09-12T13:22:00;23.60;1.00
837;DHT22;400;53.550;9.932;2023-09-12T13:24:28;23.70;1.00
837;DHT22;400;53.550;9.932;2023-09-12T13:27:01;23.50;1.00
837;DHT22;400;53.550;9.932;2023-09-12T13:29:34;23.60;1.00
837;DHT22;400;53.550;9.932;2023-09-12T13:32:00;23.60;1.00
837;DHT22;400;53.550;9.932;2023-09-12T13:34:29;23.60;1.00
837;DHT22;400;53.550;9.932;2023-09-12T13:36:58;23.40;1.00
837;DHT22;400;53.550;9.932;2023-09-12T13:39:25;23.50;1.00
837;DHT22;400;53.550;9.932;2023-09-12T13:41:53;23.70;1.00
837;DHT22;400;53.550;9.932;2023-09-12T13:44:24;23.90;1.00
837;DHT22;400;53.550;9.932;2023-09-12T13:46:52;23.90;1.00
837;DHT22;400;53.550;9.932;2023-09-12T13:49:19;23.90;1.00
837;DHT22;400;53.550;9.932;2023-09-12T13:51:47;23.80;1.00
837;DHT22;400;53.550;9.932;2023-09-12T13:54:14;23.90;1.00
837;DHT22;400;53.550;9.932;2023-09-12T13:56:42;23.90;1.00
837;DHT22;400;53.550;9.932;2023-09-12T13:59:10;24.00;1.00
837;DHT22;400;53.550;9.932;2023-09-12T14:01:41;24.00;1.00
837;DHT22;400;53.550;9.932;2023-09-12T14:04:09;24.00;1.00
837;DHT22;400;53.550;9.932;2023-09-12T14:06:41;24.10;1.00
837;DHT22;400;53.550;9.932;2023-09-12T14:09:11;24.10;1.00
837;DHT22;400;53.550;9.932;2023-09-12T14:11:46;24.20;1.00
837;DHT22;400;53.550;9.932;2023-09-12T14:14:17;24.20;1.00
837;DHT22;400;53.550;9.932;2023-09-12T14:16:47;24.20;1.00
837;DHT22;400;53.550;9.932;2023-09-12T14:19:15;24.20;1.00
837;DHT22;400;53.550;9.932;2023-09-12T14:21:42;24.10;1.00
837;DHT22;400;53.550;9.932;2023-09-12T14:24:10;23.80;1.00
837;DHT22;400;53.550;9.932;2023-09-12T14:26:40;23.70;1.00
837;DHT22;400;53.550;9.932;2023-09-12T14:29:17;23.60;1.00
837;DHT22;400;53.550;9.932;2023-09-12T14:31:48;23.80;1.00
837;DHT22;400;53.550;9.932;2023-09-12T14:34:20;23.80;1.00
837;DHT22;400;53.550;9.932;2023-09-12T14:36:49;23.80;1.00
837;DHT22;400;53.550;9.932;2023-09-12T14:39:17;23.80;1.00
837;DHT22;400;53.550;9.932;2023-09-12T14:41:49;23.90;1.00
837;DHT22;400;53.550;9.932;2023-09-12T14:44:25;24.00;1.00
837;DHT22;400;53.550;9.932;2023-09-12T14:47:00;24.10;1.00
837;DHT22;400;53.550;9.932;2023-09-12T14:49:28;24.20;1.00
837;DHT22;400;53.550;9.932;2023-09-12T14:51:56;24.30;1.00
837;DHT22;400;53.550;9.932;2023-09-12T14:54:26;24.20;1.00
837;DHT22;400;53.550;9.932;2023-09-12T14:56:59;24.20;1.00
837;DHT22;400;53.550;9.932;2023-09-12T14:59:27;24.20;1.00
837;DHT22;400;53.550;9.932;2023-09-12T15:02:03;24.20;1.00
837;DHT22;400;53.550;9.932;2023-09-12T15:04:38;24.20;1.00
837;DHT22;400;53.550;9.932;2023-09-12T15:07:10;24.20;1.00
837;DHT22;400;53.550;9.932;2023-09-12T15:09:42;24.30;1.00
837;DHT22;400;53.550;9.932;2023-09-12T15:12:14;24.30;1.00
837;DHT22;400;53.550;9.932;2023-09-12T15:14:43;24.30;1.00
837;DHT22;400;53.550;9.932;2023-09-12T15:17:11;24.10;1.00
837;DHT22;400;53.550;9.932;2023-09-12T15:19:38;24.00;1.00
837;DHT22;400;53.550;9.932;2023-09-12T15:22:05;24.10;1.00
837;DHT22;400;53.550;9.932;2023-09-12T15:24:33;24.20;1.00
837;DHT22;400;53.550;9.932;2023-09-12T15:27:05;24.20;1.00
837;DHT22;400;53.550;9.932;2023-09-12T15:29:38;23.90;1.00
837;DHT22;400;53.550;9.932;2023-09-12T15:32:09;23.80;1.00
837;DHT22;400;53.550;9.932;2023-09-12T15:34:40;23.80;1.00
837;DHT22;400;53.550;9.932;2023-09-12T15:37:16;23.90;1.00
837;DHT22;400;53.550;9.932;2023-09-12T15:39:51;24.00;1.00
837;DHT22;400;53.550;9.932;2023-09-12T15:42:20;24.00;1.00
837;DHT22;400;53.550;9.932;2023-09-12T15:44:50;24.00;1.00
837;DHT22;400;53.550;9.932;2023-09-12T15:47:21;24.10;1.00
837;DHT22;400;53.550;9.932;2023-09-12T15:49:52;24.20;1.00
837;DHT22;400;53.550;9.932;2023-09-12T15:52:31;24.20;1.00
837;DHT22;400;53.550;9.932;2023-09-12T15:55:14;24.20;1.00
837;DHT22;400;53.550;9.932;2023-09-12T15:57:43;24.20;1.00
837;DHT22;400;53.550;9.932;2023-09-12T16:00:15;24.20;1.00
837;DHT22;400;53.550;9.932;2023-09-12T16:02:42;24.20;1.00
837;DHT22;400;53.550;9.932;2023-09-12T16:05:18;24.20;1.00
837;DHT22;400;53.550;9.932;2023-09-12T16:07:46;24.20;1.00
837;DHT22;400;53.550;9.932;2023-09-12T16:10:13;24.20;1.00
837;DHT22;400;53.550;9.932;2023-09-12T16:12:43;24.10;1.00
837;DHT22;400;53.550;9.932;2023-09-12T16:15:13;24.00;1.00
837;DHT22;400;53.550;9.932;2023-09-12T16:17:45;23.90;1.00
837;DHT22;400;53.550;9.932;2023-09-12T16:20:17;23.90;1.00
837;DHT22;400;53.550;9.932;2023-09-12T16:22:44;23.90;1.00
837;DHT22;400;53.550;9.932;2023-09-12T16:25:13;24.00;1.00
837;DHT22;400;53.550;9.932;2023-09-12T16:27:46;24.00;1.00
837;DHT22;400;53.550;9.932;2023-09-12T16:30:17;24.00;1.00
837;DHT22;400;53.550;9.932;2023-09-12T16:32:51;23.90;1.00
837;DHT22;400;53.550;9.932;2023-09-12T16:35:24;23.90;1.00
837;DHT22;400;53.550;9.932;2023-09-12T16:37:53;23.80;1.00
837;DHT22;400;53.550;9.932;2023-09-12T16:40:21;23.80;1.00
837;DHT22;400;53.550;9.932;2023-09-12T16:42:50;23.70;1.00
837;DHT22;400;53.550;9.932;2023-09-12T16:45:18;23.70;1.00
837;DHT22;400;53.550;9.932;2023-09-12T16:47:46;23.80;1.00
837;DHT22;400;53.550;9.932;2023-09-12T16:50:17;23.80;1.00
837;DHT22;400;53.550;9.932;2023-09-12T16:52:50;23.80;1.00
837;DHT22;400;53.550;9.932;2023-09-12T16:55:23;23.80;1.00
837;DHT22;400;53.550;9.932;2023-09-12T16:57:54;23.80;1.00
837;DHT22;400;53.550;9.932;2023-09-12T17:00:24;23.90;1.00
837;DHT22;400;53.550;9.932;2023-09-12T17:02:51;23.80;1.00
837;DHT22;400;53.550;9.932;2023-09-12T17:05:18;23.70;1.00
837;DHT22;400;53.550;9.932;2023-09-12T17:07:52;23.60;1.00